sensor_id;sensor_type;location;lat;lon;timestamp;P1;durP1;ratioP1;P2;durP2;ratioP2
21546;SDS011;41275;51.912;4.388;2023-04-01T00:01:50;28.43;;;5.53;;
21546;SDS011;41275;51.912;4.388;2023-04-01T00:07:12;32.25;;;5.63;;
21546;SDS011;41275;51.912;4.388;2023-04-01T00:12:33;23.63;;;4.82;;
21546;SDS011;41275;51.912;4.388;2023-04-01T00:17:55;24.87;;;5.07;;
21546;SDS011;41275;51.912;4.388;2023-04-01T00:23:17;29.60;;;5.53;;
21546;SDS011;41275;51.912;4.388;2023-04-01T00:28:39;30.77;;;6.05;;
21546;SDS011;41275;51.912;4.388;2023-04-01T00:34:01;35.25;;;5.85;;
21546;SDS011;41275;51.912;4.388;2023-04-01T00:39:23;36.40;;;6.93;;
21546;SDS011;41275;51.912;4.388;2023-04-01T00:44:45;27.92;;;4.78;;
21546;SDS011;41275;51.912;4.388;2023-04-01T00:50:09;25.50;;;5.30;;
21546;SDS011;41275;51.912;4.388;2023-04-01T00:55:32;23.90;;;5.00;;
21546;SDS011;41275;51.912;4.388;2023-04-01T01:00:56;23.53;;;4.53;;
21546;SDS011;41275;51.912;4.388;2023-04-01T01:17:58;28.00;;;5.17;;
21546;SDS011;41275;51.912;4.388;2023-04-01T01:34:53;18.35;;;4.32;;
21546;SDS011;41275;51.912;4.388;2023-04-01T01:40:27;13.77;;;3.77;;
21546;SDS011;41275;51.912;4.388;2023-04-01T01:45:54;15.93;;;3.95;;
21546;SDS011;41275;51.912;4.388;2023-04-01T01:51:20;12.85;;;3.30;;
21546;SDS011;41275;51.912;4.388;2023-04-01T01:56:44;15.02;;;3.83;;
21546;SDS011;41275;51.912;4.388;2023-04-01T02:02:15;10.10;;;2.78;;
21546;SDS011;41275;51.912;4.388;2023-04-01T02:07:37;9.23;;;2.83;;
21546;SDS011;41275;51.912;4.388;2023-04-01T02:13:04;12.18;;;2.97;;
21546;SDS011;41275;51.912;4.388;2023-04-01T02:18:30;10.07;;;3.35;;
21546;SDS011;41275;51.912;4.388;2023-04-01T02:23:56;8.93;;;2.70;;
21546;SDS011;41275;51.912;4.388;2023-04-01T02:29:23;7.95;;;2.60;;
21546;SDS011;41275;51.912;4.388;2023-04-01T02:34:46;6.43;;;2.70;;
21546;SDS011;41275;51.912;4.388;2023-04-01T02:40:10;6.63;;;3.00;;
21546;SDS011;41275;51.912;4.388;2023-04-01T02:45:33;7.67;;;2.87;;
21546;SDS011;41275;51.912;4.388;2023-04-01T02:50:54;7.27;;;2.70;;
21546;SDS011;41275;51.912;4.388;2023-04-01T02:56:16;4.97;;;2.60;;
21546;SDS011;41275;51.912;4.388;2023-04-01T03:01:38;6.18;;;2.60;;
21546;SDS011;41275;51.912;4.388;2023-04-01T03:06:59;8.43;;;3.38;;
21546;SDS011;41275;51.912;4.388;2023-04-01T03:12:20;10.48;;;3.67;;
21546;SDS011;41275;51.912;4.388;2023-04-01T03:17:41;17.80;;;5.80;;
21546;SDS011;41275;51.912;4.388;2023-04-01T03:23:03;22.15;;;6.93;;
21546;SDS011;41275;51.912;4.388;2023-04-01T03:28:24;26.08;;;7.05;;
21546;SDS011;41275;51.912;4.388;2023-04-01T03:33:45;31.10;;;7.72;;
21546;SDS011;41275;51.912;4.388;2023-04-01T03:39:07;32.42;;;7.32;;
21546;SDS011;41275;51.912;4.388;2023-04-01T03:44:32;23.60;;;7.32;;
21546;SDS011;41275;51.912;4.388;2023-04-01T03:49:54;23.58;;;7.22;;
21546;SDS011;41275;51.912;4.388;2023-04-01T03:55:15;22.05;;;7.50;;
21546;SDS011;41275;51.912;4.388;2023-04-01T04:00:37;23.20;;;7.32;;
21546;SDS011;41275;51.912;4.388;2023-04-01T04:05:58;27.65;;;7.97;;
21546;SDS011;41275;51.912;4.388;2023-04-01T04:11:20;21.17;;;7.88;;
21546;SDS011;41275;51.912;4.388;2023-04-01T04:16:43;20.10;;;8.27;;
21546;SDS011;41275;51.912;4.388;2023-04-01T04:22:04;22.90;;;8.10;;
21546;SDS011;41275;51.912;4.388;2023-04-01T04:27:25;20.80;;;7.90;;
21546;SDS011;41275;51.912;4.388;2023-04-01T04:32:46;17.13;;;6.50;;
21546;SDS011;41275;51.912;4.388;2023-04-01T04:38:08;16.63;;;6.03;;
21546;SDS011;41275;51.912;4.388;2023-04-01T04:43:29;13.55;;;6.60;;
21546;SDS011;41275;51.912;4.388;2023-04-01T04:48:50;17.15;;;6.47;;
21546;SDS011;41275;51.912;4.388;2023-04-01T04:54:11;15.03;;;7.00;;
21546;SDS011;41275;51.912;4.388;2023-04-01T04:59:32;20.17;;;7.28;;
21546;SDS011;41275;51.912;4.388;2023-04-01T05:04:54;18.88;;;7.78;;
21546;SDS011;41275;51.912;4.388;2023-04-01T05:10:15;19.58;;;8.57;;
21546;SDS011;41275;51.912;4.388;2023-04-01T05:15:36;25.15;;;8.20;;
21546;SDS011;41275;51.912;4.388;2023-04-01T05:20:58;22.08;;;8.57;;
21546;SDS011;41275;51.912;4.388;2023-04-01T05:26:19;20.65;;;8.85;;
21546;SDS011;41275;51.912;4.388;2023-04-01T05:31:40;20.08;;;7.72;;
21546;SDS011;41275;51.912;4.388;2023-04-01T05:37:01;21.23;;;8.30;;
21546;SDS011;41275;51.912;4.388;2023-04-01T05:42:23;20.70;;;8.20;;
21546;SDS011;41275;51.912;4.388;2023-04-01T05:47:44;23.20;;;7.90;;
21546;SDS011;41275;51.912;4.388;2023-04-01T05:53:05;19.33;;;6.93;;
21546;SDS011;41275;51.912;4.388;2023-04-01T05:58:26;17.30;;;6.78;;
21546;SDS011;41275;51.912;4.388;2023-04-01T06:03:48;21.85;;;7.00;;
21546;SDS011;41275;51.912;4.388;2023-04-01T06:09:13;17.63;;;7.57;;
21546;SDS011;41275;51.912;4.388;2023-04-01T06:20:27;20.73;;;8.60;;
21546;SDS011;41275;51.912;4.388;2023-04-01T06:32:04;22.33;;;7.73;;
21546;SDS011;41275;51.912;4.388;2023-04-01T06:37:54;23.98;;;8.98;;
21546;SDS011;41275;51.912;4.388;2023-04-01T06:49:41;21.73;;;9.13;;
21546;SDS011;41275;51.912;4.388;2023-04-01T07:00:49;24.40;;;9.77;;
21546;SDS011;41275;51.912;4.388;2023-04-01T07:06:14;13.52;;;7.05;;
21546;SDS011;41275;51.912;4.388;2023-04-01T07:11:49;13.13;;;5.88;;
21546;SDS011;41275;51.912;4.388;2023-04-01T07:17:17;12.88;;;4.68;;
21546;SDS011;41275;51.912;4.388;2023-04-01T07:22:50;7.72;;;4.07;;
21546;SDS011;41275;51.912;4.388;2023-04-01T07:28:15;9.68;;;4.03;;
21546;SDS011;41275;51.912;4.388;2023-04-01T07:45:03;4.82;;;2.25;;
21546;SDS011;41275;51.912;4.388;2023-04-01T08:19:14;8.73;;;4.07;;
21546;SDS011;41275;51.912;4.388;2023-04-01T08:24:42;9.85;;;4.90;;
21546;SDS011;41275;51.912;4.388;2023-04-01T08:35:47;12.65;;;5.65;;
21546;SDS011;41275;51.912;4.388;2023-04-01T08:47:18;14.77;;;6.15;;
21546;SDS011;41275;51.912;4.388;2023-04-01T08:52:58;16.38;;;6.20;;
21546;SDS011;41275;51.912;4.388;2023-04-01T08:58:37;15.55;;;5.25;;
21546;SDS011;41275;51.912;4.388;2023-04-01T09:04:21;14.03;;;5.37;;
21546;SDS011;41275;51.912;4.388;2023-04-01T09:15:35;16.77;;;6.10;;
21546;SDS011;41275;51.912;4.388;2023-04-01T09:26:56;11.95;;;5.47;;
21546;SDS011;41275;51.912;4.388;2023-04-01T09:38:11;14.55;;;5.53;;
21546;SDS011;41275;51.912;4.388;2023-04-01T10:12:36;15.07;;;5.97;;
21546;SDS011;41275;51.912;4.388;2023-04-01T10:18:03;12.80;;;5.83;;
21546;SDS011;41275;51.912;4.388;2023-04-01T10:58:05;13.88;;;5.07;;
21546;SDS011;41275;51.912;4.388;2023-04-01T11:09:55;14.90;;;5.82;;
21546;SDS011;41275;51.912;4.388;2023-04-01T11:27:15;14.70;;;5.50;;
21546;SDS011;41275;51.912;4.388;2023-04-01T11:33:02;16.92;;;5.90;;
21546;SDS011;41275;51.912;4.388;2023-04-01T11:44:29;16.48;;;6.15;;
21546;SDS011;41275;51.912;4.388;2023-04-01T11:49:53;15.68;;;6.43;;
21546;SDS011;41275;51.912;4.388;2023-04-01T12:01:27;12.37;;;6.53;;
21546;SDS011;41275;51.912;4.388;2023-04-01T12:07:00;16.63;;;6.67;;
21546;SDS011;41275;51.912;4.388;2023-04-01T12:12:36;16.50;;;6.40;;
21546;SDS011;41275;51.912;4.388;2023-04-01T12:35:21;14.23;;;5.00;;
21546;SDS011;41275;51.912;4.388;2023-04-01T12:41:03;12.73;;;4.95;;
21546;SDS011;41275;51.912;4.388;2023-04-01T12:46:56;11.25;;;4.80;;
21546;SDS011;41275;51.912;4.388;2023-04-01T12:58:40;14.20;;;5.57;;
21546;SDS011;41275;51.912;4.388;2023-04-01T13:10:07;13.35;;;5.22;;
21546;SDS011;41275;51.912;4.388;2023-04-01T13:21:15;12.48;;;5.22;;
21546;SDS011;41275;51.912;4.388;2023-04-01T13:32:25;11.03;;;4.40;;
21546;SDS011;41275;51.912;4.388;2023-04-01T13:38:08;14.50;;;5.30;;
21546;SDS011;41275;51.912;4.388;2023-04-01T13:56:04;14.52;;;3.90;;
21546;SDS011;41275;51.912;4.388;2023-04-01T14:01:39;13.15;;;3.53;;
21546;SDS011;41275;51.912;4.388;2023-04-01T14:12:34;11.40;;;3.22;;
21546;SDS011;41275;51.912;4.388;2023-04-01T14:18:15;11.15;;;3.63;;
21546;SDS011;41275;51.912;4.388;2023-04-01T14:24:22;13.13;;;3.47;;
21546;SDS011;41275;51.912;4.388;2023-04-01T14:35:50;8.90;;;2.90;;
21546;SDS011;41275;51.912;4.388;2023-04-01T14:47:04;11.03;;;3.30;;
21546;SDS011;41275;51.912;4.388;2023-04-01T14:52:42;10.95;;;3.42;;
21546;SDS011;41275;51.912;4.388;2023-04-01T14:58:17;11.70;;;4.10;;
21546;SDS011;41275;51.912;4.388;2023-04-01T15:03:47;12.50;;;4.20;;
21546;SDS011;41275;51.912;4.388;2023-04-01T15:26:53;17.37;;;4.40;;
21546;SDS011;41275;51.912;4.388;2023-04-01T15:32:39;20.77;;;4.50;;
21546;SDS011;41275;51.912;4.388;2023-04-01T15:38:22;13.93;;;3.63;;
21546;SDS011;41275;51.912;4.388;2023-04-01T15:43:51;16.20;;;3.58;;
21546;SDS011;41275;51.912;4.388;2023-04-01T15:49:34;17.10;;;4.20;;
21546;SDS011;41275;51.912;4.388;2023-04-01T15:55:10;20.27;;;5.35;;
21546;SDS011;41275;51.912;4.388;2023-04-01T16:12:30;14.07;;;6.07;;
21546;SDS011;41275;51.912;4.388;2023-04-01T16:18:09;13.80;;;4.35;;
21546;SDS011;41275;51.912;4.388;2023-04-01T16:23:50;17.08;;;3.90;;
21546;SDS011;41275;51.912;4.388;2023-04-01T16:52:13;12.70;;;3.95;;
21546;SDS011;41275;51.912;4.388;2023-04-01T17:09:24;9.97;;;4.03;;
21546;SDS011;41275;51.912;4.388;2023-04-01T17:20:54;7.57;;;4.32;;
21546;SDS011;41275;51.912;4.388;2023-04-01T17:32:02;7.70;;;4.50;;
21546;SDS011;41275;51.912;4.388;2023-04-01T17:37:45;7.82;;;4.43;;
21546;SDS011;41275;51.912;4.388;2023-04-01T17:43:42;8.82;;;4.90;;
21546;SDS011;41275;51.912;4.388;2023-04-01T18:06:14;7.18;;;4.07;;
21546;SDS011;41275;51.912;4.388;2023-04-01T18:11:50;9.00;;;4.03;;
21546;SDS011;41275;51.912;4.388;2023-04-01T18:22:48;10.33;;;5.37;;
21546;SDS011;41275;51.912;4.388;2023-04-01T18:28:34;6.13;;;3.80;;
21546;SDS011;41275;51.912;4.388;2023-04-01T18:34:13;7.20;;;3.67;;
21546;SDS011;41275;51.912;4.388;2023-04-01T18:39:41;7.53;;;4.43;;
21546;SDS011;41275;51.912;4.388;2023-04-01T18:50:55;5.72;;;3.67;;
21546;SDS011;41275;51.912;4.388;2023-04-01T18:56:24;5.57;;;3.60;;
21546;SDS011;41275;51.912;4.388;2023-04-01T19:01:57;5.93;;;3.63;;
21546;SDS011;41275;51.912;4.388;2023-04-01T19:30:02;6.07;;;3.83;;
21546;SDS011;41275;51.912;4.388;2023-04-01T19:35:47;5.60;;;3.50;;
21546;SDS011;41275;51.912;4.388;2023-04-01T19:41:50;6.95;;;4.32;;
21546;SDS011;41275;51.912;4.388;2023-04-01T19:47:20;7.23;;;4.23;;
21546;SDS011;41275;51.912;4.388;2023-04-01T19:53:06;4.77;;;3.30;;
21546;SDS011;41275;51.912;4.388;2023-04-01T19:58:54;5.05;;;3.70;;
21546;SDS011;41275;51.912;4.388;2023-04-01T20:04:22;5.40;;;3.20;;
21546;SDS011;41275;51.912;4.388;2023-04-01T20:09:58;8.60;;;3.97;;
21546;SDS011;41275;51.912;4.388;2023-04-01T20:15:35;5.95;;;3.92;;
21546;SDS011;41275;51.912;4.388;2023-04-01T20:21:03;5.40;;;3.80;;
21546;SDS011;41275;51.912;4.388;2023-04-01T20:26:37;6.85;;;4.75;;
21546;SDS011;41275;51.912;4.388;2023-04-01T20:54:54;8.53;;;3.87;;
21546;SDS011;41275;51.912;4.388;2023-04-01T21:00:45;10.43;;;4.47;;
21546;SDS011;41275;51.912;4.388;2023-04-01T21:06:24;10.43;;;5.15;;
21546;SDS011;41275;51.912;4.388;2023-04-01T21:12:00;10.98;;;5.75;;
21546;SDS011;41275;51.912;4.388;2023-04-01T21:23:47;7.65;;;4.82;;
21546;SDS011;41275;51.912;4.388;2023-04-01T21:29:39;6.55;;;3.90;;
21546;SDS011;41275;51.912;4.388;2023-04-01T21:35:40;7.32;;;3.97;;
21546;SDS011;41275;51.912;4.388;2023-04-01T21:41:23;8.50;;;4.40;;
21546;SDS011;41275;51.912;4.388;2023-04-01T21:47:20;6.65;;;4.32;;
21546;SDS011;41275;51.912;4.388;2023-04-01T22:15:49;6.33;;;3.87;;
21546;SDS011;41275;51.912;4.388;2023-04-01T22:27:16;6.05;;;3.13;;
21546;SDS011;41275;51.912;4.388;2023-04-01T22:33:05;5.32;;;3.10;;
21546;SDS011;41275;51.912;4.388;2023-04-01T22:44:24;4.70;;;3.10;;
21546;SDS011;41275;51.912;4.388;2023-04-01T22:50:18;5.53;;;3.30;;
21546;SDS011;41275;51.912;4.388;2023-04-01T22:55:43;7.60;;;3.60;;
21546;SDS011;41275;51.912;4.388;2023-04-01T23:01:14;6.97;;;3.77;;
21546;SDS011;41275;51.912;4.388;2023-04-01T23:06:43;6.50;;;3.80;;
21546;SDS011;41275;51.912;4.388;2023-04-01T23:12:12;6.97;;;4.55;;
21546;SDS011;41275;51.912;4.388;2023-04-01T23:17:40;8.82;;;4.53;;
21546;SDS011;41275;51.912;4.388;2023-04-01T23:23:20;7.07;;;4.40;;
21546;SDS011;41275;51.912;4.388;2023-04-01T23:28:52;12.52;;;5.13;;
21546;SDS011;41275;51.912;4.388;2023-04-01T23:34:20;9.63;;;5.07;;
21546;SDS011;41275;51.912;4.388;2023-04-01T23:39:45;7.43;;;4.50;;
21546;SDS011;41275;51.912;4.388;2023-04-01T23:45:13;10.07;;;5.30;;
21546;SDS011;41275;51.912;4.388;2023-04-01T23:50:43;8.47;;;4.70;;
21546;SDS011;41275;51.912;4.388;2023-04-01T23:56:06;7.82;;;4.80;;
